sensor_id;sensor_type;location;lat;lon;timestamp;P1;durP1;ratioP1;P2;durP2;ratioP2
64917;SDS011;52176;44.858;38.372;2023-04-01T00:00:05;63.95;;;25.95;;
64917;SDS011;52176;44.858;38.372;2023-04-01T00:02:37;65.82;;;25.85;;
64917;SDS011;52176;44.858;38.372;2023-04-01T00:05:03;62.15;;;25.67;;
64917;SDS011;52176;44.858;38.372;2023-04-01T00:07:30;62.65;;;25.00;;
64917;SDS011;52176;44.858;38.372;2023-04-01T00:09:58;67.30;;;26.10;;
64917;SDS011;52176;44.858;38.372;2023-04-01T00:12:24;60.67;;;23.73;;
64917;SDS011;52176;44.858;38.372;2023-04-01T00:14:50;63.97;;;24.02;;
64917;SDS011;52176;44.858;38.372;2023-04-01T00:17:16;57.00;;;23.13;;
64917;SDS011;52176;44.858;38.372;2023-04-01T00:19:42;45.38;;;20.00;;
64917;SDS011;52176;44.858;38.372;2023-04-01T00:22:09;44.47;;;18.55;;
64917;SDS011;52176;44.858;38.372;2023-04-01T00:24:37;26.23;;;12.13;;
64917;SDS011;52176;44.858;38.372;2023-04-01T00:27:04;25.15;;;11.18;;
64917;SDS011;52176;44.858;38.372;2023-04-01T00:29:30;21.80;;;8.93;;
64917;SDS011;52176;44.858;38.372;2023-04-01T00:31:57;21.88;;;8.75;;
64917;SDS011;52176;44.858;38.372;2023-04-01T00:34:23;21.08;;;9.02;;
64917;SDS011;52176;44.858;38.372;2023-04-01T00:36:49;31.63;;;12.55;;
64917;SDS011;52176;44.858;38.372;2023-04-01T00:39:17;34.92;;;12.18;;
64917;SDS011;52176;44.858;38.372;2023-04-01T00:41:44;31.23;;;13.75;;
64917;SDS011;52176;44.858;38.372;2023-04-01T00:44:11;37.25;;;17.08;;
64917;SDS011;52176;44.858;38.372;2023-04-01T00:46:48;40.70;;;17.63;;
64917;SDS011;52176;44.858;38.372;2023-04-01T00:49:15;47.95;;;19.58;;
64917;SDS011;52176;44.858;38.372;2023-04-01T00:51:44;60.97;;;26.92;;
64917;SDS011;52176;44.858;38.372;2023-04-01T00:54:13;60.42;;;30.15;;
64917;SDS011;52176;44.858;38.372;2023-04-01T00:56:43;74.63;;;34.03;;
64917;SDS011;52176;44.858;38.372;2023-04-01T01:02:05;66.38;;;33.85;;
64917;SDS011;52176;44.858;38.372;2023-04-01T01:04:34;84.13;;;36.88;;
64917;SDS011;52176;44.858;38.372;2023-04-01T01:15:17;78.25;;;33.97;;
64917;SDS011;52176;44.858;38.372;2023-04-01T01:20:40;86.03;;;35.45;;
64917;SDS011;52176;44.858;38.372;2023-04-01T01:32:17;81.57;;;36.97;;
64917;SDS011;52176;44.858;38.372;2023-04-01T01:37:45;89.10;;;37.50;;
64917;SDS011;52176;44.858;38.372;2023-04-01T01:40:13;91.72;;;38.60;;
64917;SDS011;52176;44.858;38.372;2023-04-01T01:42:43;80.90;;;37.25;;
64917;SDS011;52176;44.858;38.372;2023-04-01T01:45:14;82.97;;;36.42;;
64917;SDS011;52176;44.858;38.372;2023-04-01T01:47:45;83.47;;;38.58;;
64917;SDS011;52176;44.858;38.372;2023-04-01T01:50:13;87.75;;;37.97;;
64917;SDS011;52176;44.858;38.372;2023-04-01T01:52:41;90.97;;;37.67;;
64917;SDS011;52176;44.858;38.372;2023-04-01T01:55:25;89.05;;;35.80;;
64917;SDS011;52176;44.858;38.372;2023-04-01T01:57:55;70.32;;;32.70;;
64917;SDS011;52176;44.858;38.372;2023-04-01T02:00:25;82.45;;;32.47;;
64917;SDS011;52176;44.858;38.372;2023-04-01T02:02:51;86.30;;;39.35;;
64917;SDS011;52176;44.858;38.372;2023-04-01T02:05:23;80.57;;;35.50;;
64917;SDS011;52176;44.858;38.372;2023-04-01T02:08:13;89.15;;;34.95;;
64917;SDS011;52176;44.858;38.372;2023-04-01T02:10:43;76.18;;;32.92;;
64917;SDS011;52176;44.858;38.372;2023-04-01T02:13:23;70.03;;;29.73;;
64917;SDS011;52176;44.858;38.372;2023-04-01T02:16:00;62.75;;;28.25;;
64917;SDS011;52176;44.858;38.372;2023-04-01T02:21:00;35.78;;;15.05;;
64917;SDS011;52176;44.858;38.372;2023-04-01T02:23:31;36.50;;;16.38;;
64917;SDS011;52176;44.858;38.372;2023-04-01T02:26:00;38.22;;;16.02;;
64917;SDS011;52176;44.858;38.372;2023-04-01T02:28:28;31.77;;;14.82;;
64917;SDS011;52176;44.858;38.372;2023-04-01T02:30:57;19.65;;;7.68;;
64917;SDS011;52176;44.858;38.372;2023-04-01T02:33:25;16.58;;;9.43;;
64917;SDS011;52176;44.858;38.372;2023-04-01T02:35:53;18.73;;;8.80;;
64917;SDS011;52176;44.858;38.372;2023-04-01T02:38:19;20.70;;;10.60;;
64917;SDS011;52176;44.858;38.372;2023-04-01T02:40:47;21.55;;;11.48;;
64917;SDS011;52176;44.858;38.372;2023-04-01T02:43:15;18.55;;;8.98;;
64917;SDS011;52176;44.858;38.372;2023-04-01T02:45:42;25.80;;;11.25;;
64917;SDS011;52176;44.858;38.372;2023-04-01T02:48:08;24.52;;;9.60;;
64917;SDS011;52176;44.858;38.372;2023-04-01T02:50:34;18.75;;;9.20;;
64917;SDS011;52176;44.858;38.372;2023-04-01T02:53:01;13.43;;;6.93;;
64917;SDS011;52176;44.858;38.372;2023-04-01T02:55:29;15.40;;;6.93;;
64917;SDS011;52176;44.858;38.372;2023-04-01T02:57:56;15.73;;;8.90;;
64917;SDS011;52176;44.858;38.372;2023-04-01T03:00:22;15.82;;;7.68;;
64917;SDS011;52176;44.858;38.372;2023-04-01T03:02:48;16.90;;;8.95;;
64917;SDS011;52176;44.858;38.372;2023-04-01T03:05:14;22.08;;;9.02;;
64917;SDS011;52176;44.858;38.372;2023-04-01T03:07:41;17.27;;;8.65;;
64917;SDS011;52176;44.858;38.372;2023-04-01T03:10:07;13.98;;;6.30;;
64917;SDS011;52176;44.858;38.372;2023-04-01T03:12:33;26.15;;;7.07;;
64917;SDS011;52176;44.858;38.372;2023-04-01T03:14:59;14.15;;;6.78;;
64917;SDS011;52176;44.858;38.372;2023-04-01T03:17:25;19.15;;;7.70;;
64917;SDS011;52176;44.858;38.372;2023-04-01T03:19:52;21.27;;;8.65;;
64917;SDS011;52176;44.858;38.372;2023-04-01T03:22:18;18.92;;;9.73;;
64917;SDS011;52176;44.858;38.372;2023-04-01T03:24:47;21.45;;;10.10;;
64917;SDS011;52176;44.858;38.372;2023-04-01T03:27:14;22.15;;;11.88;;
64917;SDS011;52176;44.858;38.372;2023-04-01T03:29:40;29.98;;;15.70;;
64917;SDS011;52176;44.858;38.372;2023-04-01T03:32:07;40.00;;;18.50;;
64917;SDS011;52176;44.858;38.372;2023-04-01T03:34:33;34.90;;;15.52;;
64917;SDS011;52176;44.858;38.372;2023-04-01T03:37:00;28.77;;;12.90;;
64917;SDS011;52176;44.858;38.372;2023-04-01T03:39:26;32.03;;;15.18;;
64917;SDS011;52176;44.858;38.372;2023-04-01T03:41:52;21.77;;;10.95;;
64917;SDS011;52176;44.858;38.372;2023-04-01T03:44:18;24.40;;;10.93;;
64917;SDS011;52176;44.858;38.372;2023-04-01T03:46:47;26.05;;;12.85;;
64917;SDS011;52176;44.858;38.372;2023-04-01T03:49:14;26.05;;;12.10;;
64917;SDS011;52176;44.858;38.372;2023-04-01T03:51:41;32.55;;;13.85;;
64917;SDS011;52176;44.858;38.372;2023-04-01T03:54:09;26.75;;;13.60;;
64917;SDS011;52176;44.858;38.372;2023-04-01T03:56:36;31.25;;;13.07;;
64917;SDS011;52176;44.858;38.372;2023-04-01T03:59:03;34.65;;;12.63;;
64917;SDS011;52176;44.858;38.372;2023-04-01T04:01:31;24.88;;;12.90;;
64917;SDS011;52176;44.858;38.372;2023-04-01T04:03:57;30.02;;;12.65;;
64917;SDS011;52176;44.858;38.372;2023-04-01T04:06:24;35.05;;;10.27;;
64917;SDS011;52176;44.858;38.372;2023-04-01T04:08:51;26.23;;;10.82;;
64917;SDS011;52176;44.858;38.372;2023-04-01T04:11:18;28.73;;;10.55;;
64917;SDS011;52176;44.858;38.372;2023-04-01T04:13:45;22.20;;;9.73;;
64917;SDS011;52176;44.858;38.372;2023-04-01T04:16:14;18.35;;;8.48;;
64917;SDS011;52176;44.858;38.372;2023-04-01T04:18:45;20.75;;;8.27;;
64917;SDS011;52176;44.858;38.372;2023-04-01T04:21:15;19.00;;;7.05;;
64917;SDS011;52176;44.858;38.372;2023-04-01T04:23:41;17.75;;;6.97;;
64917;SDS011;52176;44.858;38.372;2023-04-01T04:26:09;15.77;;;8.07;;
64917;SDS011;52176;44.858;38.372;2023-04-01T04:28:37;32.40;;;9.50;;
64917;SDS011;52176;44.858;38.372;2023-04-01T04:31:05;18.67;;;8.18;;
64917;SDS011;52176;44.858;38.372;2023-04-01T04:33:33;21.10;;;9.07;;
64917;SDS011;52176;44.858;38.372;2023-04-01T04:36:00;18.60;;;8.20;;
64917;SDS011;52176;44.858;38.372;2023-04-01T04:38:27;20.80;;;6.88;;
64917;SDS011;52176;44.858;38.372;2023-04-01T04:40:53;17.35;;;7.00;;
64917;SDS011;52176;44.858;38.372;2023-04-01T04:43:20;13.75;;;7.13;;
64917;SDS011;52176;44.858;38.372;2023-04-01T04:45:46;14.98;;;7.72;;
64917;SDS011;52176;44.858;38.372;2023-04-01T04:48:13;9.27;;;4.93;;
64917;SDS011;52176;44.858;38.372;2023-04-01T04:50:45;13.57;;;6.32;;
64917;SDS011;52176;44.858;38.372;2023-04-01T04:53:17;10.90;;;5.45;;
64917;SDS011;52176;44.858;38.372;2023-04-01T04:55:44;12.23;;;5.32;;
64917;SDS011;52176;44.858;38.372;2023-04-01T04:58:31;13.77;;;6.75;;
64917;SDS011;52176;44.858;38.372;2023-04-01T05:00:58;8.10;;;4.47;;
64917;SDS011;52176;44.858;38.372;2023-04-01T05:03:29;6.45;;;3.63;;
64917;SDS011;52176;44.858;38.372;2023-04-01T05:05:55;9.85;;;5.25;;
64917;SDS011;52176;44.858;38.372;2023-04-01T05:08:21;11.73;;;4.85;;
64917;SDS011;52176;44.858;38.372;2023-04-01T05:10:47;13.30;;;7.95;;
64917;SDS011;52176;44.858;38.372;2023-04-01T05:13:13;13.00;;;7.50;;
64917;SDS011;52176;44.858;38.372;2023-04-01T05:15:41;14.68;;;7.00;;
64917;SDS011;52176;44.858;38.372;2023-04-01T05:18:07;7.18;;;3.75;;
64917;SDS011;52176;44.858;38.372;2023-04-01T05:20:33;12.07;;;5.72;;
64917;SDS011;52176;44.858;38.372;2023-04-01T05:23:00;12.68;;;5.75;;
64917;SDS011;52176;44.858;38.372;2023-04-01T05:25:26;7.95;;;4.45;;
64917;SDS011;52176;44.858;38.372;2023-04-01T05:27:53;16.17;;;4.63;;
64917;SDS011;52176;44.858;38.372;2023-04-01T05:30:19;11.13;;;4.18;;
64917;SDS011;52176;44.858;38.372;2023-04-01T05:33:06;6.95;;;3.53;;
64917;SDS011;52176;44.858;38.372;2023-04-01T05:35:32;6.32;;;3.15;;
64917;SDS011;52176;44.858;38.372;2023-04-01T05:37:58;7.80;;;2.80;;
64917;SDS011;52176;44.858;38.372;2023-04-01T05:40:25;4.53;;;2.70;;
64917;SDS011;52176;44.858;38.372;2023-04-01T05:42:52;3.42;;;2.28;;
64917;SDS011;52176;44.858;38.372;2023-04-01T05:45:18;5.65;;;2.03;;
64917;SDS011;52176;44.858;38.372;2023-04-01T05:48:05;6.45;;;2.00;;
64917;SDS011;52176;44.858;38.372;2023-04-01T05:50:39;1.50;;;1.00;;
64917;SDS011;52176;44.858;38.372;2023-04-01T05:53:06;2.10;;;0.90;;
64917;SDS011;52176;44.858;38.372;2023-04-01T05:55:34;1.30;;;0.90;;
64917;SDS011;52176;44.858;38.372;2023-04-01T05:58:01;0.70;;;0.70;;
64917;SDS011;52176;44.858;38.372;2023-04-01T06:00:28;1.88;;;1.00;;
64917;SDS011;52176;44.858;38.372;2023-04-01T06:02:57;1.35;;;0.80;;
64917;SDS011;52176;44.858;38.372;2023-04-01T06:05:28;1.58;;;0.90;;
64917;SDS011;52176;44.858;38.372;2023-04-01T06:07:59;2.70;;;0.90;;
64917;SDS011;52176;44.858;38.372;2023-04-01T07:06:58;2.60;;;0.90;;
64917;SDS011;52176;44.858;38.372;2023-04-01T07:09:30;2.83;;;0.93;;
64917;SDS011;52176;44.858;38.372;2023-04-01T15:51:41;2.40;;;1.10;;
64917;SDS011;52176;44.858;38.372;2023-04-01T15:58:58;4.22;;;1.00;;
64917;SDS011;52176;44.858;38.372;2023-04-01T16:31:32;8.77;;;3.17;;
64917;SDS011;52176;44.858;38.372;2023-04-01T16:39:27;13.77;;;3.55;;
64917;SDS011;52176;44.858;38.372;2023-04-01T17:04:07;16.42;;;8.32;;
64917;SDS011;52176;44.858;38.372;2023-04-01T17:09:05;25.13;;;9.15;;
64917;SDS011;52176;44.858;38.372;2023-04-01T17:24:38;93.63;;;34.55;;
64917;SDS011;52176;44.858;38.372;2023-04-01T17:35:39;79.85;;;30.38;;
64917;SDS011;52176;44.858;38.372;2023-04-01T17:46:21;155.70;;;57.20;;
64917;SDS011;52176;44.858;38.372;2023-04-01T17:49:01;209.27;;;81.97;;
64917;SDS011;52176;44.858;38.372;2023-04-01T17:51:33;190.65;;;72.72;;
64917;SDS011;52176;44.858;38.372;2023-04-01T17:57:10;137.90;;;54.60;;
64917;SDS011;52176;44.858;38.372;2023-04-01T18:11:36;133.65;;;48.08;;
64917;SDS011;52176;44.858;38.372;2023-04-01T18:22:23;77.68;;;31.48;;
64917;SDS011;52176;44.858;38.372;2023-04-01T18:25:28;81.47;;;30.17;;
64917;SDS011;52176;44.858;38.372;2023-04-01T18:30:41;86.20;;;33.22;;
64917;SDS011;52176;44.858;38.372;2023-04-01T18:52:46;47.05;;;17.20;;
64917;SDS011;52176;44.858;38.372;2023-04-01T18:58:14;39.78;;;16.30;;
64917;SDS011;52176;44.858;38.372;2023-04-01T19:00:51;37.45;;;15.57;;
64917;SDS011;52176;44.858;38.372;2023-04-01T19:03:23;49.45;;;16.42;;
64917;SDS011;52176;44.858;38.372;2023-04-01T19:06:01;43.20;;;15.27;;
64917;SDS011;52176;44.858;38.372;2023-04-01T19:08:46;49.75;;;16.52;;
64917;SDS011;52176;44.858;38.372;2023-04-01T19:16:35;19.20;;;7.82;;
64917;SDS011;52176;44.858;38.372;2023-04-01T19:19:07;16.63;;;6.75;;
64917;SDS011;52176;44.858;38.372;2023-04-01T19:21:53;13.73;;;6.20;;
64917;SDS011;52176;44.858;38.372;2023-04-01T19:30:04;10.05;;;4.50;;
64917;SDS011;52176;44.858;38.372;2023-04-01T19:38:26;27.02;;;9.82;;
64917;SDS011;52176;44.858;38.372;2023-04-01T19:41:22;37.90;;;13.02;;
64917;SDS011;52176;44.858;38.372;2023-04-01T19:44:12;36.25;;;14.50;;
64917;SDS011;52176;44.858;38.372;2023-04-01T19:46:48;29.52;;;11.43;;
64917;SDS011;52176;44.858;38.372;2023-04-01T19:52:37;32.30;;;13.25;;
64917;SDS011;52176;44.858;38.372;2023-04-01T19:55:26;30.45;;;11.00;;
64917;SDS011;52176;44.858;38.372;2023-04-01T19:57:59;29.05;;;11.98;;
64917;SDS011;52176;44.858;38.372;2023-04-01T20:06:04;21.25;;;9.73;;
64917;SDS011;52176;44.858;38.372;2023-04-01T20:11:13;24.10;;;8.73;;
64917;SDS011;52176;44.858;38.372;2023-04-01T20:19:26;26.00;;;8.88;;
64917;SDS011;52176;44.858;38.372;2023-04-01T20:21:54;29.45;;;8.88;;
64917;SDS011;52176;44.858;38.372;2023-04-01T20:24:25;26.20;;;9.35;;
64917;SDS011;52176;44.858;38.372;2023-04-01T20:27:30;21.70;;;8.30;;
64917;SDS011;52176;44.858;38.372;2023-04-01T20:44:14;19.17;;;7.90;;
64917;SDS011;52176;44.858;38.372;2023-04-01T20:46:56;19.55;;;7.53;;
64917;SDS011;52176;44.858;38.372;2023-04-01T20:49:59;21.23;;;7.40;;
64917;SDS011;52176;44.858;38.372;2023-04-01T20:52:54;16.88;;;6.85;;
64917;SDS011;52176;44.858;38.372;2023-04-01T20:58:29;15.65;;;6.95;;
64917;SDS011;52176;44.858;38.372;2023-04-01T21:23:52;27.63;;;10.88;;
64917;SDS011;52176;44.858;38.372;2023-04-01T21:26:41;28.15;;;9.90;;
64917;SDS011;52176;44.858;38.372;2023-04-01T21:44:35;10.57;;;4.07;;
64917;SDS011;52176;44.858;38.372;2023-04-01T21:50:23;13.35;;;5.40;;
64917;SDS011;52176;44.858;38.372;2023-04-01T22:07:19;15.45;;;5.20;;
64917;SDS011;52176;44.858;38.372;2023-04-01T22:09:52;13.73;;;5.38;;
64917;SDS011;52176;44.858;38.372;2023-04-01T22:15:15;17.85;;;5.13;;
64917;SDS011;52176;44.858;38.372;2023-04-01T22:18:08;24.20;;;6.93;;
64917;SDS011;52176;44.858;38.372;2023-04-01T22:26:24;31.52;;;14.07;;
64917;SDS011;52176;44.858;38.372;2023-04-01T22:28:52;31.75;;;12.63;;
64917;SDS011;52176;44.858;38.372;2023-04-01T22:31:28;18.05;;;8.77;;
64917;SDS011;52176;44.858;38.372;2023-04-01T22:34:05;12.90;;;6.97;;
64917;SDS011;52176;44.858;38.372;2023-04-01T22:39:56;15.20;;;7.95;;
64917;SDS011;52176;44.858;38.372;2023-04-01T22:42:37;21.27;;;8.00;;
64917;SDS011;52176;44.858;38.372;2023-04-01T22:52:47;22.17;;;8.70;;
64917;SDS011;52176;44.858;38.372;2023-04-01T22:55:40;31.30;;;10.75;;
64917;SDS011;52176;44.858;38.372;2023-04-01T22:58:17;23.50;;;10.18;;
64917;SDS011;52176;44.858;38.372;2023-04-01T23:00:48;29.80;;;10.60;;
64917;SDS011;52176;44.858;38.372;2023-04-01T23:03:19;22.98;;;10.85;;
64917;SDS011;52176;44.858;38.372;2023-04-01T23:05:58;26.27;;;11.00;;
64917;SDS011;52176;44.858;38.372;2023-04-01T23:08:45;26.45;;;12.57;;
64917;SDS011;52176;44.858;38.372;2023-04-01T23:11:35;27.98;;;11.95;;
64917;SDS011;52176;44.858;38.372;2023-04-01T23:14:18;26.67;;;12.48;;
64917;SDS011;52176;44.858;38.372;2023-04-01T23:17:03;26.30;;;12.10;;
64917;SDS011;52176;44.858;38.372;2023-04-01T23:24:59;16.35;;;7.40;;
64917;SDS011;52176;44.858;38.372;2023-04-01T23:27:51;8.40;;;4.25;;
64917;SDS011;52176;44.858;38.372;2023-04-01T23:33:10;7.50;;;4.20;;
64917;SDS011;52176;44.858;38.372;2023-04-01T23:35:46;10.38;;;4.75;;
64917;SDS011;52176;44.858;38.372;2023-04-01T23:38:36;9.80;;;5.13;;
64917;SDS011;52176;44.858;38.372;2023-04-01T23:41:05;10.68;;;5.28;;
64917;SDS011;52176;44.858;38.372;2023-04-01T23:43:36;13.75;;;5.15;;
64917;SDS011;52176;44.858;38.372;2023-04-01T23:46:05;8.38;;;5.22;;
64917;SDS011;52176;44.858;38.372;2023-04-01T23:48:34;9.88;;;4.90;;
64917;SDS011;52176;44.858;38.372;2023-04-01T23:51:22;6.22;;;3.15;;
64917;SDS011;52176;44.858;38.372;2023-04-01T23:54:04;7.68;;;3.10;;
64917;SDS011;52176;44.858;38.372;2023-04-01T23:56:48;7.05;;;3.58;;
64917;SDS011;52176;44.858;38.372;2023-04-01T23:59:38;11.00;;;3.63;;
